Time;durP1;ratioP1;P1;durP2;ratioP2;P2;SDS_P1;SDS_P2;PMS_P1;PMS_P2;Temp;Humidity;BMP_temperature;BMP_pressure;BME280_temperature;BME280_humidity;BME280_pressure;Samples;Min_cycle;Max_cycle;Signal;HPM_P1;HPM_P2
2022/08/11 00:01:14;;;;;;;1.60;1.00;;;;;;;28.33;40.20;100875.66;1779475;79;21052;-83
2022/08/11 00:03:54;;;;;;;1.42;1.05;;;;;;;28.33;40.22;100879.86;1778921;80;21071;-84
2022/08/11 00:06:35;;;;;;;2.15;1.02;;;;;;;28.34;40.21;100883.70;1778579;80;21008;-83
2022/08/11 00:09:06;;;;;;;1.52;1.10;;;;;;;28.33;40.21;100885.45;1778664;79;21530;-83
2022/08/11 00:11:49;;;;;;;1.82;1.32;;;;;;;28.33;40.22;100882.66;1778600;80;21047;-83
2022/08/11 00:14:19;;;;;;;1.77;1.10;;;;;;;28.33;40.24;100884.87;1777631;78;21076;-84
2022/08/11 00:17:07;;;;;;;1.20;1.00;;;;;;;28.32;40.25;100881.84;1756476;80;21458;-83
2022/08/11 00:19:38;;;;;;;1.60;1.20;;;;;;;28.33;40.25;100884.87;1778710;80;20960;-83
2022/08/11 00:22:04;;;;;;;;;;;;;;;28.32;40.25;100881.84;1781270;80;21601;-83
2022/08/11 00:24:38;;;;;;;1.52;1.00;;;;;;;28.32;40.26;100880.45;1778806;79;20172;-83
2022/08/11 00:27:05;;;;;;;1.55;1.20;;;;;;;28.31;40.27;100878.01;1778718;79;21055;-83
2022/08/11 00:29:32;;;;;;;2.00;1.30;;;;;;;28.31;40.26;100875.21;1778516;80;21169;-83
2022/08/11 00:32:02;;;;;;;1.50;1.02;;;;;;;28.32;40.22;100878.23;1756752;80;21087;-83
2022/08/11 00:34:33;;;;;;;1.17;0.90;;;;;;;28.31;40.20;100884.42;1776246;80;21027;-84
2022/08/11 00:37:05;;;;;;;2.67;1.42;;;;;;;28.32;40.24;100884.64;1744239;80;21037;-84
2022/08/11 00:39:33;;;;;;;2.00;1.47;;;;;;;28.32;40.22;100879.05;1744291;80;21124;-84
2022/08/11 00:42:20;;;;;;;2.35;1.22;;;;;;;28.32;40.20;100874.85;1744149;81;21677;-84
2022/08/11 00:45:10;;;;;;;2.00;1.07;;;;;;;28.33;40.19;100874.27;1743933;82;21046;-84
2022/08/11 00:47:48;;;;;;;1.90;1.20;;;;;;;28.33;40.25;100876.48;1744535;81;21396;-83
2022/08/11 00:50:47;;;;;;;1.27;1.05;;;;;;;28.32;40.24;100866.45;1744063;82;21046;-83
2022/08/11 00:54:10;;;;;;;1.57;1.17;;;;;;;28.33;40.20;100871.47;1741703;80;21508;-83
2022/08/11 00:57:08;;;;;;;1.50;1.10;;;;;;;28.32;40.21;100867.86;1744301;80;21181;-84
2022/08/11 00:59:46;;;;;;;1.62;1.05;;;;;;;28.32;40.22;100864.25;1744247;80;21053;-84
2022/08/11 01:02:55;;;;;;;1.62;1.20;;;;;;;28.31;40.26;100869.61;1725151;81;21045;-83
2022/08/11 01:06:04;;;;;;;1.95;1.20;;;;;;;28.30;40.26;100863.23;1741453;81;21057;-84
2022/08/11 01:08:51;;;;;;;1.22;1.00;;;;;;;28.29;40.23;100866.39;1741104;81;21085;-84
2022/08/11 01:12:01;;;;;;;1.37;1.10;;;;;;;28.29;40.23;100862.19;1706970;82;21114;-83
2022/08/11 01:14:55;;;;;;;1.20;1.10;;;;;;;28.29;40.27;100856.59;1736173;81;20921;-83
2022/08/11 01:18:00;;;;;;;1.35;1.10;;;;;;;28.29;40.31;100858.00;1736462;82;21740;-83
2022/08/11 01:20:35;;;;;;;1.72;1.20;;;;;;;28.28;40.33;100857.19;1772967;79;21040;-84
2022/08/11 01:23:46;;;;;;;1.77;1.02;;;;;;;28.27;40.33;100857.54;1773478;80;21080;-84
2022/08/11 01:26:59;;;;;;;1.80;1.20;;;;;;;28.27;40.34;100848.56;1773092;79;21363;-83
2022/08/11 01:30:09;;;;;;;1.55;1.10;;;;;;;28.27;40.33;100851.36;1773345;79;21061;-83
2022/08/11 01:33:18;;;;;;;1.40;1.12;;;;;;;28.27;40.36;100846.34;1773198;79;21060;-83
2022/08/11 01:36:28;;;;;;;1.65;1.17;;;;;;;28.26;40.38;100841.95;1771690;79;21048;-83
2022/08/11 01:39:33;;;;;;;1.33;1.00;;;;;;;28.26;40.41;100848.95;1772184;79;21002;-83
2022/08/11 01:45:41;;;;;;;1.10;0.85;;;;;;;28.25;40.43;100840.33;1757526;79;21139;-83
2022/08/11 01:48:32;;;;;;;1.40;1.10;;;;;;;28.23;40.45;100837.89;1773093;79;20997;-83
2022/08/11 01:51:18;;;;;;;1.30;1.00;;;;;;;28.23;40.48;100837.89;1753946;81;21068;-83
2022/08/11 01:53:56;;;;;;;1.60;1.20;;;;;;;28.24;40.49;100845.70;1773208;79;20977;-84
2022/08/11 01:56:55;;;;;;;1.95;1.10;;;;;;;28.24;40.49;100841.50;1713803;81;22117;-84
2022/08/11 01:59:34;;;;;;;1.60;1.20;;;;;;;28.23;40.54;100837.89;1773342;79;20957;-84
2022/08/11 02:05:29;;;;;;;1.45;1.15;;;;;;;28.24;40.57;100836.72;1766677;79;21089;-84
2022/08/11 02:08:20;;;;;;;1.85;1.10;;;;;;;28.24;40.58;100838.12;1761988;80;21033;-84
2022/08/11 02:13:59;;;;;;;1.67;1.25;;;;;;;28.23;40.61;100826.70;1730999;81;21555;-84
2022/08/11 02:17:00;;;;;;;1.32;1.05;;;;;;;28.24;40.62;100827.52;1731344;81;21053;-84
2022/08/11 02:26:00;;;;;;;2.10;1.15;;;;;;;28.23;40.64;100826.70;1706257;84;21652;-83
2022/08/11 02:28:48;;;;;;;1.37;1.00;;;;;;;28.23;40.64;100822.50;1755739;79;21007;-83
2022/08/11 02:34:43;;;;;;;1.42;1.05;;;;;;;28.23;40.71;100818.89;1749269;80;21011;-83
2022/08/11 02:37:34;;;;;;;1.20;1.00;;;;;;;28.22;40.73;100820.09;1732939;80;21098;-83
2022/08/11 02:40:37;;;;;;;1.75;1.12;;;;;;;28.22;40.73;100816.68;1749753;80;21482;-83
2022/08/11 02:43:09;;;;;;;1.95;1.22;;;;;;;28.21;40.76;100817.88;1748510;80;21015;-83
2022/08/11 02:45:40;;;;;;;1.30;1.02;;;;;;;28.22;40.75;100817.30;1749557;80;21488;-83
2022/08/11 02:51:52;;;;;;;;;;;;;;;28.22;40.77;100823.67;1751873;80;21580;-83
2022/08/11 02:54:45;;;;;;;1.57;1.17;;;;;;;28.21;40.80;100817.88;1748959;80;21210;-84
2022/08/11 02:57:42;;;;;;;1.25;1.10;;;;;;;28.20;40.79;100819.64;1749259;80;21117;-83
2022/08/11 03:00:13;;;;;;;1.65;1.10;;;;;;;28.19;40.79;100825.82;1749262;80;20904;-84
2022/08/11 03:02:48;;;;;;;1.35;1.10;;;;;;;28.21;40.83;100825.46;1748535;81;21627;-84
2022/08/11 03:05:34;;;;;;;1.42;1.02;;;;;;;28.19;40.85;100825.82;1722430;80;21034;-83
2022/08/11 03:08:24;;;;;;;1.55;1.22;;;;;;;28.21;40.87;100828.26;1779028;80;22167;-83
2022/08/11 03:17:48;;;;;;;1.62;1.20;;;;;;;28.22;40.89;100834.08;1778870;80;21035;-83
2022/08/11 03:20:37;;;;;;;1.75;1.05;;;;;;;28.20;40.88;100835.84;1779461;79;21078;-83
2022/08/11 03:23:34;;;;;;;1.57;1.00;;;;;;;28.19;40.88;100837.01;1714498;80;21979;-83
2022/08/11 03:26:08;;;;;;;1.55;1.15;;;;;;;28.19;40.89;100841.20;1779446;79;21434;-84
2022/08/11 03:29:00;;;;;;;1.87;1.30;;;;;;;28.19;40.90;100840.39;1779129;80;21035;-83
2022/08/11 03:31:31;;;;;;;1.35;1.10;;;;;;;28.19;40.92;100841.80;1779272;80;21031;-83
2022/08/11 03:34:10;;;;;;;2.25;1.30;;;;;;;28.19;40.93;100845.41;1779074;79;21524;-83
2022/08/11 03:37:03;;;;;;;1.80;1.15;;;;;;;28.20;40.94;100842.83;1781436;78;21741;-84
2022/08/11 03:39:40;;;;;;;1.37;1.20;;;;;;;28.20;40.95;100844.81;1788746;80;21091;-83
2022/08/11 03:42:29;;;;;;;1.50;1.00;;;;;;;28.19;40.96;100848.78;1787280;80;20997;-84
2022/08/11 03:45:34;;;;;;;1.92;1.20;;;;;;;28.20;40.95;100843.42;1788950;80;21510;-84
2022/08/11 03:48:39;;;;;;;1.98;1.10;;;;;;;28.20;40.96;100849.83;1789334;78;21039;-83
2022/08/11 03:51:26;;;;;;;1.80;1.40;;;;;;;28.19;40.95;100844.59;1789023;79;23715;-84
2022/08/11 03:54:15;;;;;;;1.25;1.02;;;;;;;28.19;40.96;100851.58;1789214;80;21043;-84
2022/08/11 03:57:04;;;;;;;1.40;1.00;;;;;;;28.19;40.96;100848.20;1788951;78;21032;-84
2022/08/11 03:59:45;;;;;;;1.17;1.00;;;;;;;28.20;40.97;100847.61;1788710;80;21083;-84
2022/08/11 04:02:35;;;;;;;1.42;1.10;;;;;;;28.19;40.97;100851.58;1768937;78;21582;-84
2022/08/11 04:05:45;;;;;;;1.77;1.20;;;;;;;28.19;41.00;100855.78;1791722;79;21118;-83
2022/08/11 04:08:26;;;;;;;1.20;1.00;;;;;;;28.18;40.98;100856.98;1797422;79;21717;-83
2022/08/11 04:11:14;;;;;;;1.62;1.20;;;;;;;28.18;41.00;100852.17;1797521;79;21058;-83
2022/08/11 04:17:35;;;;;;;1.32;1.00;;;;;;;28.19;40.97;100855.78;1797114;79;21045;-83
2022/08/11 04:20:31;;;;;;;1.60;1.17;;;;;;;28.17;40.97;100853.38;1796904;78;21462;-83
2022/08/11 04:23:08;;;;;;;1.77;1.00;;;;;;;28.17;40.99;100851.97;1796605;78;21422;-84
2022/08/11 04:26:32;;;;;;;1.72;1.17;;;;;;;28.18;40.98;100852.78;1797165;79;20991;-84
2022/08/11 04:29:30;;;;;;;1.77;1.10;;;;;;;28.17;40.99;100850.58;1797332;79;20998;-84
2022/08/11 04:32:17;;;;;;;1.40;1.02;;;;;;;28.15;40.98;100849.53;1797251;79;21014;-83
2022/08/11 04:34:49;;;;;;;1.02;0.90;;;;;;;28.15;40.98;100850.93;1797412;79;21133;-85
2022/08/11 04:37:35;;;;;;;1.30;1.10;;;;;;;28.17;40.99;100849.17;1796091;79;21496;-84
2022/08/11 04:40:27;;;;;;;0.98;0.85;;;;;;;28.17;41.01;100852.56;1797474;79;21068;-84
2022/08/11 04:43:22;;;;;;;1.60;1.10;;;;;;;28.18;41.01;100847.19;1795938;78;21489;-84
2022/08/11 04:46:21;;;;;;;1.62;1.17;;;;;;;28.17;41.01;100852.56;1797411;79;21010;-84
2022/08/11 05:02:09;;;;;;;2.45;1.50;;;;;;;28.15;40.97;100853.73;1797331;79;21108;-85
2022/08/11 05:08:03;;;;;;;2.40;1.20;;;;;;;28.10;40.93;100854.60;1797031;79;20959;-84
2022/08/11 05:11:25;;;;;;;3.10;1.27;;;;;;;28.08;40.88;100857.75;1796885;79;21041;-84
2022/08/11 05:37:09;;;;;;;2.58;1.32;;;;;;;27.91;40.14;100869.95;1797435;79;21001;-85
2022/08/11 05:56:49;;;;;;;3.08;1.45;;;;;;;27.88;39.49;100865.88;1797315;79;20971;-84
2022/08/11 05:59:17;;;;;;;6.03;1.45;;;;;;;27.86;39.34;100859.05;1796323;79;20967;-85
2022/08/11 06:01:44;;;;;;;4.47;2.37;;;;;;;27.84;39.31;100860.80;1797616;79;21977;-84
2022/08/11 06:04:20;;;;;;;2.77;1.30;;;;;;;27.83;39.24;100862.00;1797458;79;21034;-85
2022/08/11 06:07:09;;;;;;;2.60;1.50;;;;;;;27.83;39.14;100866.19;1752352;79;21062;-85
2022/08/11 06:09:47;;;;;;;2.25;1.10;;;;;;;27.83;39.16;100866.78;1744632;82;21042;-84
2022/08/11 06:12:28;;;;;;;3.15;1.40;;;;;;;27.84;39.11;100865.61;1744361;82;21522;-84
2022/08/11 06:14:55;;;;;;;3.92;1.50;;;;;;;27.84;39.07;100866.39;1744406;80;22905;-84
2022/08/11 06:17:29;;;;;;;3.85;1.42;;;;;;;27.84;38.97;100864.21;1744221;81;20938;-84
2022/08/11 06:20:11;;;;;;;2.15;1.27;;;;;;;27.82;38.91;100861.77;1744334;81;21096;-84
2022/08/11 06:22:42;;;;;;;2.35;1.35;;;;;;;27.82;38.91;100865.15;1722030;80;21041;-84
2022/08/11 06:25:09;;;;;;;2.30;1.30;;;;;;;27.81;38.86;100859.33;1744541;81;21564;-85
2022/08/11 06:27:36;;;;;;;2.22;1.27;;;;;;;27.81;38.79;100859.33;1731530;81;21638;-85
2022/08/11 06:30:12;;;;;;;4.78;1.47;;;;;;;27.81;38.77;100864.34;1731042;82;21030;-84
2022/08/11 06:32:34;;;;;;;4.35;1.45;;;;;;;27.81;38.77;100855.95;1729335;82;21089;-84
2022/08/11 06:35:30;;;;;;;2.77;1.40;;;;;;;27.81;38.67;100855.95;1731316;81;21010;-84
2022/08/11 06:38:08;;;;;;;3.67;1.47;;;;;;;27.80;38.55;100852.11;1733620;81;21582;-84
2022/08/11 06:44:13;;;;;;;4.58;1.20;;;;;;;27.74;38.27;100844.62;1732537;81;21044;-84
2022/08/11 06:46:46;;;;;;;3.65;1.35;;;;;;;27.73;38.37;100850.56;1761107;81;21080;-85
2022/08/11 06:52:05;;;;;;;3.47;1.70;;;;;;;27.71;38.31;100850.33;1760224;80;21052;-85
2022/08/11 06:54:35;;;;;;;3.30;1.25;;;;;;;27.70;38.30;100842.33;1760854;81;21720;-85
2022/08/11 07:02:45;;;;;;;4.08;1.65;;;;;;;27.71;38.14;100847.54;1761465;80;21385;-85
2022/08/11 07:05:42;;;;;;;4.97;1.45;;;;;;;27.70;38.11;100843.73;1761564;80;21100;-84
2022/08/11 07:17:23;;;;;;;4.37;1.60;;;;;;;27.63;37.95;100854.73;1752294;81;21065;-84
2022/08/11 07:31:13;;;;;;;4.15;1.90;;;;;;;27.64;38.03;100857.75;1695870;81;21080;-84
2022/08/11 07:33:55;;;;;;;5.62;1.60;;;;;;;27.61;37.79;100855.70;1751562;80;21032;-84
2022/08/11 07:36:22;;;;;;;6.40;1.80;;;;;;;27.57;37.81;100852.01;1727170;80;21530;-84
2022/08/11 07:38:50;;;;;;;3.70;1.90;;;;;;;27.57;37.89;100857.60;1748547;81;21477;-84
2022/08/11 07:41:18;;;;;;;5.78;2.10;;;;;;;27.58;37.90;100855.81;1749132;80;21603;-83
2022/08/11 07:43:47;;;;;;;5.37;1.90;;;;;;;27.59;37.84;100855.23;1749307;81;21086;-83
2022/08/11 07:54:35;;;;;;;3.20;1.62;;;;;;;27.67;37.78;100848.05;1765848;79;21108;-84
2022/08/11 08:19:02;;;;;;;3.08;1.45;;;;;;;27.69;37.21;100836.52;1737709;80;21024;-84
2022/08/11 08:21:30;;;;;;;3.27;1.60;;;;;;;27.68;37.20;100833.48;1773862;80;20997;-84
2022/08/11 08:23:57;;;;;;;5.00;1.50;;;;;;;27.68;37.17;100832.91;1768212;79;21031;-84
2022/08/11 08:31:59;;;;;;;4.12;1.70;;;;;;;27.71;37.04;100838.34;1701709;83;20999;-84
2022/08/11 08:34:25;;;;;;;4.00;1.70;;;;;;;27.71;36.98;100835.54;1741541;79;21042;-84
2022/08/11 08:36:51;;;;;;;6.40;1.42;;;;;;;27.71;36.99;100833.56;1751136;79;21080;-84
2022/08/11 08:39:21;;;;;;;4.62;1.50;;;;;;;27.72;37.01;100837.17;1744825;80;21132;-85
2022/08/11 08:41:57;;;;;;;3.57;1.53;;;;;;;27.71;37.06;100835.54;1778492;79;22441;-86
2022/08/11 08:44:24;;;;;;;2.95;1.52;;;;;;;27.69;37.23;100838.72;1753538;79;21582;-85
2022/08/11 08:46:55;;;;;;;5.15;1.90;;;;;;;27.71;37.31;100838.34;1766808;80;21519;-85
2022/08/11 08:49:26;;;;;;;3.95;1.60;;;;;;;27.73;37.39;100837.40;1764433;79;20973;-84
2022/08/11 08:51:54;;;;;;;5.12;1.60;;;;;;;27.74;37.51;100835.41;1773680;80;21079;-84
2022/08/11 08:54:32;;;;;;;6.33;1.70;;;;;;;27.76;37.62;100832.47;1764586;80;21202;-83
2022/08/11 08:57:01;;;;;;;5.45;1.87;;;;;;;27.75;37.53;100835.06;1749567;80;21556;-84
2022/08/11 08:59:27;;;;;;;4.55;1.90;;;;;;;27.76;37.60;100835.27;1768146;80;21037;-84
2022/08/11 09:02:00;;;;;;;3.60;1.95;;;;;;;27.80;37.67;100833.94;1752926;79;21598;-84
2022/08/11 09:04:28;;;;;;;4.70;1.98;;;;;;;27.81;37.58;100834.98;1756148;80;21529;-85
2022/08/11 09:06:59;;;;;;;4.35;1.65;;;;;;;27.82;37.58;100826.00;1769689;79;21139;-84
2022/08/11 09:09:47;;;;;;;4.45;1.90;;;;;;;27.84;37.63;100833.45;1757276;80;21056;-86
2022/08/11 09:12:13;;;;;;;5.75;1.80;;;;;;;27.86;37.64;100822.70;1745472;80;21496;-84
2022/08/11 09:14:59;;;;;;;5.58;1.60;;;;;;;27.87;37.61;100822.34;1743671;80;21092;-84
2022/08/11 09:17:41;;;;;;;4.28;1.42;;;;;;;27.89;37.67;100828.36;1752687;79;22238;-84
2022/08/11 09:20:14;;;;;;;4.97;1.72;;;;;;;27.92;37.50;100822.64;1764065;79;21999;-84
2022/08/11 09:28:17;;;;;;;6.78;2.15;;;;;;;27.95;37.37;100813.51;1759015;78;21083;-86
2022/08/11 09:30:45;;;;;;;4.10;1.60;;;;;;;27.95;37.41;100817.70;1772588;79;21103;-84
2022/08/11 09:33:15;;;;;;;4.22;1.62;;;;;;;27.95;37.46;100812.92;1778895;79;22067;-83
2022/08/11 09:35:45;;;;;;;3.50;1.65;;;;;;;27.97;37.55;100812.53;1752203;80;21052;-83
2022/08/11 09:40:59;;;;;;;6.03;1.65;;;;;;;27.97;37.73;100806.95;1754239;80;20172;-85
2022/08/11 09:46:11;;;;;;;4.00;1.77;;;;;;;27.98;37.71;100805.77;1757195;79;21214;-84
2022/08/11 09:48:43;;;;;;;3.90;1.60;;;;;;;27.98;37.72;100809.38;1742970;80;20997;-84
2022/08/11 09:51:10;;;;;;;2.95;1.62;;;;;;;27.99;37.75;100798.42;1747427;79;21034;-84
2022/08/11 09:53:39;;;;;;;1.57;1.22;;;;;;;28.00;37.77;100800.64;1726015;80;21114;-83
2022/08/11 09:59:07;;;;;;;3.98;1.60;;;;;;;28.01;37.72;100801.65;1666736;83;21218;-84
2022/08/11 10:01:45;;;;;;;5.12;1.60;;;;;;;28.01;37.62;100794.66;1681267;84;21485;-84
2022/08/11 10:04:14;;;;;;;3.62;1.77;;;;;;;28.03;37.64;100795.11;1704626;80;21135;-84
2022/08/11 10:09:28;;;;;;;3.77;1.50;;;;;;;28.02;37.64;100792.67;1741931;80;21535;-84
2022/08/11 10:12:03;;;;;;;3.47;1.60;;;;;;;28.04;37.65;100788.93;1756314;80;21746;-84
2022/08/11 10:17:18;;;;;;;2.02;1.57;;;;;;;28.04;37.60;100791.14;1766460;79;21100;-84
2022/08/11 10:19:46;;;;;;;3.07;1.40;;;;;;;28.03;37.59;100785.32;1770866;80;21475;-84
2022/08/11 10:27:43;;;;;;;2.52;1.27;;;;;;;28.07;37.57;100785.39;1750538;80;21633;-84
2022/08/11 10:35:41;;;;;;;4.75;1.67;;;;;;;28.07;37.37;100789.59;1762907;80;21070;-84
2022/08/11 10:38:07;;;;;;;1.70;1.37;;;;;;;28.08;37.43;100787.83;1755869;80;21566;-84
2022/08/11 10:40:34;;;;;;;3.30;1.60;;;;;;;28.08;37.43;100786.42;1748539;79;21542;-84
2022/08/11 10:43:12;;;;;;;2.67;1.40;;;;;;;28.09;37.38;100784.45;1746590;79;21099;-84
2022/08/11 10:48:28;;;;;;;1.42;1.20;;;;;;;28.10;37.30;100781.88;1761583;79;21076;-85
2022/08/11 10:51:13;;;;;;;2.08;1.30;;;;;;;28.10;37.30;100767.30;1767762;79;21259;-83
2022/08/11 10:59:23;;;;;;;3.30;1.40;;;;;;;28.11;37.01;100762.52;1754201;80;21048;-83
2022/08/11 11:01:57;;;;;;;3.12;1.60;;;;;;;28.10;36.89;100764.50;1746828;79;21119;-83
2022/08/11 11:04:46;;;;;;;2.62;1.47;;;;;;;28.10;36.93;100758.91;1768348;79;21641;-84
2022/08/11 11:07:23;;;;;;;2.72;1.50;;;;;;;28.10;36.93;100761.71;1757203;80;21103;-83
2022/08/11 11:09:54;;;;;;;2.27;1.57;;;;;;;28.11;36.94;100765.32;1776625;79;21068;-84
2022/08/11 11:18:23;;;;;;;2.05;1.32;;;;;;;28.10;36.72;100760.31;1781322;79;21205;-83
2022/08/11 11:21:13;;;;;;;2.17;1.50;;;;;;;28.08;36.69;100762.66;1770735;79;21006;-83
2022/08/11 11:24:16;;;;;;;2.00;1.35;;;;;;;28.09;36.71;100764.28;1768369;79;21211;-83
2022/08/11 11:27:29;;;;;;;2.62;1.50;;;;;;;28.08;36.68;100768.84;1749884;80;21062;-84
2022/08/11 11:30:08;;;;;;;4.28;1.50;;;;;;;28.09;36.67;100760.67;1700928;83;21059;-83
2022/08/11 11:32:40;;;;;;;1.80;1.37;;;;;;;28.10;36.69;100760.89;1729812;81;22330;-82
2022/08/11 11:35:56;;;;;;;1.60;1.10;;;;;;;28.10;36.68;100753.31;1762280;79;21009;-82
2022/08/11 11:38:22;;;;;;;2.55;1.55;;;;;;;28.10;36.66;100763.70;1768224;79;21148;-82
2022/08/11 11:41:23;;;;;;;4.05;1.40;;;;;;;28.10;36.63;100766.49;1786737;79;20990;-82
2022/08/11 11:43:17;;;;;;;2.37;1.37;;;;;;;28.11;36.66;100756.93;1776909;79;21037;-82
2022/08/11 11:45:44;;;;;;;3.35;1.50;;;;;;;28.11;36.69;100757.73;1764401;79;21025;-83
2022/08/11 11:48:10;;;;;;;5.15;1.50;;;;;;;28.13;36.66;100760.96;1775488;79;20890;-83
2022/08/11 11:50:37;;;;;;;6.42;1.67;;;;;;;28.13;36.63;100758.78;1760928;79;21065;-83
2022/08/11 11:53:06;;;;;;;2.15;1.32;;;;;;;28.14;36.72;100756.18;1795141;79;21068;-82
2022/08/11 11:55:33;;;;;;;2.75;1.52;;;;;;;28.14;36.75;100758.39;1720669;83;21069;-82
2022/08/11 12:03:29;;;;;;;3.37;1.40;;;;;;;28.15;36.80;100743.82;1711511;81;21093;-83
2022/08/11 12:05:56;;;;;;;2.45;1.32;;;;;;;28.14;36.71;100744.41;1710465;82;21065;-83
2022/08/11 12:08:22;;;;;;;2.20;1.42;;;;;;;28.14;36.59;100740.80;1717053;82;21121;-82
2022/08/11 12:13:46;;;;;;;2.42;1.35;;;;;;;28.14;36.66;100737.41;1706185;84;21008;-82
2022/08/11 12:16:14;;;;;;;2.83;1.70;;;;;;;28.14;36.65;100746.39;1719118;82;21108;-83
2022/08/11 12:18:42;;;;;;;2.67;1.32;;;;;;;28.14;36.68;100738.00;1709651;82;21074;-83
2022/08/11 12:21:09;;;;;;;2.80;1.67;;;;;;;28.15;36.62;100742.42;1721771;82;21034;-82
2022/08/11 12:29:08;;;;;;;3.75;1.37;;;;;;;28.15;36.37;100739.63;1715852;82;21137;-82
2022/08/11 12:31:36;;;;;;;3.98;1.25;;;;;;;28.16;36.33;100737.05;1741009;81;21064;-82
2022/08/11 12:34:08;;;;;;;1.90;1.20;;;;;;;28.16;36.30;100734.25;1730500;81;21100;-82
2022/08/11 12:36:38;;;;;;;3.87;1.37;;;;;;;28.17;36.26;100733.67;1733119;81;21161;-82
2022/08/11 12:39:12;;;;;;;1.98;1.20;;;;;;;28.15;36.20;100726.45;1736958;81;21061;-83
2022/08/11 12:47:18;;;;;;;3.55;1.50;;;;;;;28.15;35.93;100725.64;1751369;81;21061;-82
2022/08/11 12:52:42;;;;;;;2.65;1.30;;;;;;;28.17;36.01;100718.28;1738468;81;21123;-82
2022/08/11 12:55:12;;;;;;;3.90;1.45;;;;;;;28.18;36.20;100723.48;1726799;81;21081;-83
2022/08/11 13:05:59;;;;;;;2.92;1.22;;;;;;;28.21;36.60;100721.37;1733048;81;21052;-83
2022/08/11 13:08:26;;;;;;;2.90;1.40;;;;;;;28.22;36.65;100722.17;1737779;81;21175;-83
2022/08/11 13:13:38;;;;;;;3.90;1.40;;;;;;;28.24;36.92;100710.02;1778848;79;20995;-82
2022/08/11 13:16:05;;;;;;;1.35;1.10;;;;;;;28.26;36.92;100711.86;1757594;79;22410;-82
2022/08/11 13:18:32;;;;;;;2.20;1.60;;;;;;;28.26;36.90;100712.67;1804890;79;21084;-82
2022/08/11 13:20:58;;;;;;;1.42;1.22;;;;;;;28.26;36.94;100709.88;1739666;79;21000;-82
2022/08/11 13:23:25;;;;;;;1.80;1.22;;;;;;;28.27;36.98;100707.86;1780302;79;21004;-82
2022/08/11 13:25:53;;;;;;;3.15;1.40;;;;;;;28.28;37.05;100706.09;1762316;79;21567;-83
2022/08/11 13:28:21;;;;;;;2.42;1.42;;;;;;;28.29;36.81;100709.70;1809965;79;21134;-83
2022/08/11 13:33:39;;;;;;;3.00;1.52;;;;;;;28.29;36.65;100704.11;1793888;79;21029;-84
2022/08/11 13:36:06;;;;;;;1.35;1.25;;;;;;;28.28;36.49;100700.50;1783852;79;21654;-84
2022/08/11 13:38:32;;;;;;;2.00;1.35;;;;;;;28.29;36.52;100706.91;1779166;80;21006;-83
2022/08/11 13:40:59;;;;;;;2.83;1.50;;;;;;;28.28;36.58;100700.50;1779017;80;21930;-83
2022/08/11 13:43:25;;;;;;;2.70;1.52;;;;;;;28.29;36.63;100701.31;1778847;80;21024;-83
2022/08/11 13:46:17;;;;;;;1.85;1.27;;;;;;;28.30;36.77;100697.34;1779221;80;20969;-83
2022/08/11 13:48:21;;;;;;;2.45;1.40;;;;;;;28.30;36.86;100695.36;1775148;80;20981;-84
2022/08/11 13:53:32;;;;;;;1.42;0.98;;;;;;;28.30;37.03;100689.76;1779064;80;21590;-84
2022/08/11 13:55:59;;;;;;;1.75;1.15;;;;;;;28.30;37.10;100688.36;1779080;80;21079;-83
2022/08/11 13:58:26;;;;;;;3.15;1.42;;;;;;;28.32;37.17;100678.17;1779327;79;21123;-83
2022/08/11 14:00:53;;;;;;;2.77;1.22;;;;;;;28.31;37.28;100681.56;1779222;80;21065;-83
2022/08/11 14:03:23;;;;;;;1.82;1.40;;;;;;;28.32;37.35;100680.97;1779365;80;21472;-83
2022/08/11 14:05:52;;;;;;;3.10;1.40;;;;;;;28.32;37.39;100683.19;1779495;80;21952;-84
2022/08/11 14:08:25;;;;;;;1.50;1.25;;;;;;;28.32;37.47;100672.58;1779097;80;21499;-83
2022/08/11 14:13:36;;;;;;;1.85;1.20;;;;;;;28.33;37.52;100677.81;1759593;80;21051;-84
2022/08/11 14:13:38;;;;;;;2.35;1.12;;;;;;;28.33;37.57;100668.61;1754344;80;21080;-83
2022/08/11 14:16:11;;;;;;;2.05;1.20;;;;;;;28.33;37.64;100670.00;1757402;80;21052;-84
2022/08/11 14:18:41;;;;;;;1.85;1.10;;;;;;;28.33;37.69;100674.20;1736102;80;21559;-84
2022/08/11 14:23:53;;;;;;;1.82;1.17;;;;;;;28.33;37.75;100671.41;1680956;81;21511;-84
2022/08/11 14:26:27;;;;;;;1.60;1.25;;;;;;;28.33;37.78;100672.22;1757539;81;21076;-84
2022/08/11 14:29:14;;;;;;;3.35;1.30;;;;;;;28.34;37.79;100673.03;1757859;80;21028;-84
2022/08/11 14:31:53;;;;;;;2.15;1.30;;;;;;;28.33;37.82;100670.82;1757733;80;21974;-83
2022/08/11 14:34:28;;;;;;;2.22;1.20;;;;;;;28.34;37.82;100664.64;1767067;80;21114;-83
2022/08/11 14:36:59;;;;;;;2.70;1.30;;;;;;;28.34;37.84;100664.64;1767180;80;21048;-84
2022/08/11 14:39:28;;;;;;;1.60;1.22;;;;;;;28.34;37.85;100664.64;1789043;80;21531;-83
2022/08/11 14:47:30;;;;;;;2.22;1.27;;;;;;;28.33;37.94;100661.02;1789177;79;21131;-84
2022/08/11 14:49:57;;;;;;;1.45;1.12;;;;;;;28.34;37.95;100671.05;1788979;79;21043;-84
2022/08/11 14:52:24;;;;;;;1.57;1.20;;;;;;;28.34;37.99;100666.03;1789487;78;20916;-83
2022/08/11 14:57:39;;;;;;;1.57;1.20;;;;;;;28.33;38.04;100665.81;1788978;78;21064;-84
2022/08/11 15:00:17;;;;;;;2.47;1.50;;;;;;;28.32;38.09;100663.59;1789134;80;21529;-83
2022/08/11 15:05:30;;;;;;;1.60;1.05;;;;;;;28.33;38.15;100660.21;1788985;80;21063;-83
2022/08/11 15:07:57;;;;;;;1.42;1.10;;;;;;;28.32;38.15;100659.98;1789231;80;21028;-84
2022/08/11 15:10:23;;;;;;;1.47;1.22;;;;;;;28.32;38.20;100653.80;1762989;80;21095;-83
2022/08/11 15:12:50;;;;;;;2.00;1.30;;;;;;;28.32;38.25;100652.41;1744447;80;21168;-83
2022/08/11 15:18:04;;;;;;;1.67;1.25;;;;;;;28.32;38.32;100656.61;1730994;81;21073;-85
2022/08/11 15:26:16;;;;;;;2.25;1.22;;;;;;;28.32;38.40;100654.39;1730903;81;21050;-83
2022/08/11 15:37:26;;;;;;;1.60;1.20;;;;;;;28.31;38.49;100655.56;1731060;81;21193;-83
2022/08/11 15:46:31;;;;;;;1.65;1.30;;;;;;;28.30;38.54;100652.58;1757741;81;21033;-84
2022/08/11 15:49:05;;;;;;;1.75;1.30;;;;;;;28.29;38.54;100648.97;1761680;81;21584;-83
2022/08/11 15:51:36;;;;;;;1.35;1.00;;;;;;;28.29;38.57;100644.77;1761822;81;21319;-83
2022/08/11 15:54:07;;;;;;;1.25;1.00;;;;;;;28.29;38.61;100646.17;1761640;80;21052;-83
2022/08/11 15:56:34;;;;;;;2.22;1.35;;;;;;;28.30;38.61;100643.59;1761590;81;21659;-83
2022/08/11 16:04:31;;;;;;;1.72;1.30;;;;;;;28.32;38.62;100639.00;1761732;81;21531;-83
2022/08/11 16:07:10;;;;;;;1.25;1.00;;;;;;;28.31;38.64;100634.00;1761516;80;21116;-82
2022/08/11 16:09:45;;;;;;;1.65;1.22;;;;;;;28.32;38.63;100637.02;1761562;80;21112;-83
2022/08/11 16:12:32;;;;;;;1.77;1.20;;;;;;;28.33;38.64;100642.03;1761450;81;21092;-83
2022/08/11 16:18:00;;;;;;;1.65;1.22;;;;;;;28.33;38.64;100641.44;1761644;80;21168;-83
2022/08/11 16:20:33;;;;;;;2.02;1.05;;;;;;;28.33;38.64;100638.64;1761230;80;21025;-83
2022/08/11 16:23:02;;;;;;;1.70;1.30;;;;;;;28.32;38.66;100642.61;1761525;80;21018;-83
2022/08/11 16:25:35;;;;;;;1.45;1.10;;;;;;;28.32;38.69;100637.02;1761370;81;21495;-83
2022/08/11 16:28:04;;;;;;;1.40;1.20;;;;;;;28.33;38.69;100650.42;1761295;81;21080;-83
2022/08/11 16:30:34;;;;;;;1.55;1.10;;;;;;;28.32;38.70;100648.21;1739397;81;39650;-82
2022/08/11 16:33:03;;;;;;;1.98;1.30;;;;;;;28.33;38.71;100651.82;1761381;80;21080;-83
2022/08/11 16:40:45;;;;;;;1.92;1.15;;;;;;;28.33;38.76;100644.83;1764783;81;21520;-83
2022/08/11 16:48:46;;;;;;;1.62;0.90;;;;;;;28.31;38.82;100642.39;1761345;80;20993;-83
2022/08/11 16:51:22;;;;;;;2.40;1.10;;;;;;;28.31;38.83;100642.39;1761307;81;21040;-83
2022/08/11 16:53:49;;;;;;;1.20;1.10;;;;;;;28.31;38.86;100646.59;1761655;80;21784;-83
2022/08/11 16:56:22;;;;;;;1.90;1.15;;;;;;;28.31;38.89;100642.98;1761445;81;21479;-83
2022/08/11 17:02:04;;;;;;;1.40;1.00;;;;;;;28.30;38.91;100643.59;1731026;82;21611;-84
2022/08/11 17:13:19;;;;;;;1.30;1.12;;;;;;;28.27;38.96;100653.30;1731011;81;21077;-83
2022/08/11 17:16:06;;;;;;;1.92;1.10;;;;;;;28.27;38.97;100651.31;1731281;81;21058;-83
2022/08/11 17:18:55;;;;;;;1.87;1.37;;;;;;;28.27;38.99;100654.11;1730903;81;21085;-83
2022/08/11 17:24:31;;;;;;;1.55;1.07;;;;;;;28.26;39.03;100656.72;1730896;81;21101;-83
2022/08/11 17:26:58;;;;;;;1.77;1.30;;;;;;;28.25;39.03;100662.67;1704510;82;21041;-83